»·PEaware :: DAL143 KBFI-KMFR

DAL143 :: KBFI-KMFR

FLIGHT INFORMATION

Flight Status: Arrived
Operator:
Delta Air Lines
More flights by this operator :: More flights under this callsign
Pilot: Anonymous 16492 (16492)
Aircraft: BOEING 737-200
(B732)
More flights by this aircraft type
Origin: KBFI Boeing Field/King Co Intl
United States
Destination: KMFR Rogue Valley Intl-Medford
United States
More flights between these airports :: More routes between these airports
Route: +NRVNA1 OLM J126 EUG V448 RBG SAMIE
File this flight plan on PilotEdge
Remarks:
Altitude:
(Current/Filed)
28,000ft
Speed:
(Current/Filed)
400kts
Departed: 18-Oct-18 04:53 PM
Arrived: 18-Oct-18 05:48 PM
Distance/Time
Traveled:
311nm/0:55
Distance/Time
To Go:
Arrived

Flight Plot

Page will automatically refresh every two minutes.

Flight plan parsing failed; only flown route is shown


Map Options




Map Legend


Flown Route
Filed Route
Departure Airport
Arrival Airport
Navaid (VOR, NDB)
Fix

Horizontal Profiles

Position Reports

Time Latitude Longitude Heading Altitude Ground
Speed
18-Oct-18 16:29 47.536224 -122.310531 240 29ft 0kts
18-Oct-18 16:30 47.536224 -122.310531 240 29ft 0kts
18-Oct-18 16:31 47.536224 -122.310531 240 29ft 0kts
18-Oct-18 16:32 47.536224 -122.310531 240 29ft 0kts
18-Oct-18 16:33 47.536224 -122.310531 240 29ft 0kts
18-Oct-18 16:34 47.536224 -122.310531 240 29ft 0kts
18-Oct-18 16:35 47.536224 -122.310531 240 29ft 0kts
18-Oct-18 16:36 47.536224 -122.310531 240 29ft 0kts
18-Oct-18 16:37 47.536224 -122.310531 240 29ft 0kts
18-Oct-18 16:38 47.536224 -122.310531 240 29ft 0kts
18-Oct-18 16:39 47.536224 -122.310531 240 29ft 0kts
18-Oct-18 16:40 47.536224 -122.310531 240 29ft 0kts
18-Oct-18 16:41 47.536224 -122.310531 240 29ft 0kts
18-Oct-18 16:42 47.536224 -122.310531 240 29ft 0kts
18-Oct-18 16:43 47.536224 -122.310531 240 29ft 0kts
18-Oct-18 16:44 47.536224 -122.310531 240 29ft 0kts
18-Oct-18 16:45 47.536224 -122.310531 240 29ft 0kts
18-Oct-18 16:46 47.536224 -122.310531 240 29ft 0kts
18-Oct-18 16:47 47.536224 -122.310531 240 29ft 0kts
18-Oct-18 16:48 47.536224 -122.310531 240 29ft 0kts
18-Oct-18 16:49 47.536224 -122.310531 240 29ft 0kts
18-Oct-18 16:50 47.536937 -122.312263 332 29ft 9kts
18-Oct-18 16:51 47.539535 -122.313052 56 29ft 10kts
18-Oct-18 16:52 47.539776 -122.312473 60 29ft 0kts
18-Oct-18 16:53 47.539776 -122.312473 60 29ft 0kts
18-Oct-18 16:54 47.539573 -122.310579 149 29ft 2kts
18-Oct-18 16:55 47.513504 -122.288901 151 719ft 185kts
18-Oct-18 16:56 47.461282 -122.245312 149 2002ft 250kts
18-Oct-18 16:57 47.410022 -122.201606 150 2007ft 264kts
18-Oct-18 16:58 47.333601 -122.137175 150 2003ft 281kts
18-Oct-18 16:59 47.278413 -122.090782 149 2809ft 258kts
18-Oct-18 17:00 47.209739 -122.073417 219 6146ft 276kts
18-Oct-18 17:01 47.172033 -122.170128 245 9592ft 281kts
18-Oct-18 17:02 47.137229 -122.272976 246 12695ft 287kts
18-Oct-18 17:03 47.100673 -122.379180 246 15336ft 298kts
18-Oct-18 17:04 47.059767 -122.496993 246 16025ft 364kts
18-Oct-18 17:05 47.010441 -122.641408 244 16355ft 420kts
18-Oct-18 17:06 46.918064 -122.694672 166 20074ft 399kts
18-Oct-18 17:07 46.808963 -122.660373 192 20863ft 424kts
18-Oct-18 17:08 46.690964 -122.691769 191 21971ft 441kts
18-Oct-18 17:09 46.568849 -122.718944 190 23159ft 450kts
18-Oct-18 17:10 46.450304 -122.744760 190 24291ft 455kts
18-Oct-18 17:11 46.325253 -122.771840 190 25434ft 458kts
18-Oct-18 17:12 46.200121 -122.798811 190 26512ft 460kts
18-Oct-18 17:13 46.073754 -122.825934 190 27243ft 469kts
18-Oct-18 17:14 45.941819 -122.854110 190 27227ft 492kts
18-Oct-18 17:15 45.806669 -122.882815 190 27208ft 497kts
18-Oct-18 17:16 45.671262 -122.911442 190 27209ft 495kts
18-Oct-18 17:17 45.535733 -122.939961 190 27209ft 494kts
18-Oct-18 17:18 45.400856 -122.968206 190 27211ft 493kts
18-Oct-18 17:19 45.266054 -122.995802 190 27212ft 492kts
18-Oct-18 17:20 45.131117 -123.023031 190 27211ft 491kts
18-Oct-18 17:21 44.996710 -123.050135 188 27206ft 492kts
18-Oct-18 17:22 44.862570 -123.076851 188 27198ft 494kts
18-Oct-18 17:23 44.727936 -123.103613 188 27199ft 494kts
18-Oct-18 17:24 44.592275 -123.130475 188 27200ft 494kts
18-Oct-18 17:25 44.456726 -123.157188 188 27201ft 494kts
18-Oct-18 17:26 44.321735 -123.183663 188 27195ft 488kts
18-Oct-18 17:27 44.192808 -123.208828 188 25037ft 461kts
18-Oct-18 17:28 44.070381 -123.231431 187 22686ft 443kts
18-Oct-18 17:29 43.951412 -123.251638 187 20354ft 424kts
18-Oct-18 17:30 43.838374 -123.270761 187 18065ft 407kts
18-Oct-18 17:31 43.729099 -123.289174 187 15790ft 391kts
18-Oct-18 17:32 43.623733 -123.306866 187 13564ft 376kts
18-Oct-18 17:33 43.523070 -123.323706 187 12008ft 344kts
18-Oct-18 17:34 43.437095 -123.333851 183 11997ft 280kts
18-Oct-18 17:35 43.367065 -123.338953 183 11988ft 225kts
18-Oct-18 17:36 43.310912 -123.343009 183 11334ft 222kts
18-Oct-18 17:37 43.245165 -123.347754 183 12067ft 279kts
18-Oct-18 17:38 43.165375 -123.337745 158 13247ft 286kts
18-Oct-18 17:39 43.084508 -123.287551 153 12253ft 352kts
18-Oct-18 17:40 42.990173 -123.235634 163 11296ft 379kts
18-Oct-18 17:41 42.908859 -123.184277 144 12424ft 320kts
18-Oct-18 17:42 42.825965 -123.125255 158 9677ft 360kts
18-Oct-18 17:43 42.732020 -123.077065 158 8171ft 340kts
18-Oct-18 17:44 42.652657 -123.022193 154 7056ft 327kts
18-Oct-18 17:45 42.572647 -122.977659 157 5996ft 299kts
18-Oct-18 17:46 42.506913 -122.942082 159 5634ft 226kts
18-Oct-18 17:47 42.458856 -122.918350 158 4244ft 155kts
18-Oct-18 17:48 42.420384 -122.897435 158 1906ft 133kts
18-Oct-18 17:49 42.386334 -122.879303 158 1343ft 126kts
18-Oct-18 17:50 42.369657 -122.870990 230 1342ft 18kts
18-Oct-18 17:51 42.369015 -122.873398 249 1342ft 0kts
18-Oct-18 17:52 42.369015 -122.873398 249 1342ft 0kts
18-Oct-18 17:53 42.369015 -122.873398 249 1342ft 0kts
18-Oct-18 17:54 42.369015 -122.873399 249 1342ft 0kts
18-Oct-18 17:55 42.369015 -122.873399 249 1342ft 0kts
18-Oct-18 17:56 42.369015 -122.873399 249 1342ft 0kts
18-Oct-18 17:57 42.369015 -122.873399 249 1342ft 0kts
18-Oct-18 17:58 42.369015 -122.873399 249 1342ft 0kts
18-Oct-18 17:59 42.369015 -122.873399 249 1342ft 0kts

Navigation Log

Ident Type
Flight plan parsing failed, navigation log unavailable